createdAt,value
2022-07-28T00:01:55.883Z,42.83
2022-07-28T00:04:25.103Z,38.92
2022-07-28T00:06:54.415Z,43.53
2022-07-28T00:09:23.637Z,42.10
2022-07-28T00:11:54.925Z,40.08
2022-07-28T00:14:26.194Z,40.33
2022-07-28T00:16:55.682Z,39.92
2022-07-28T00:19:24.961Z,41.53
2022-07-28T00:21:54.299Z,38.58
2022-07-28T00:24:24.592Z,38.38
2022-07-28T00:26:53.957Z,43.80
2022-07-28T00:29:23.449Z,44.15
2022-07-28T00:31:54.423Z,44.05
2022-07-28T00:34:26.570Z,41.80
2022-07-28T00:36:56.334Z,42.20
2022-07-28T00:39:25.564Z,48.83
2022-07-28T00:41:54.836Z,47.17
2022-07-28T00:44:24.269Z,42.25
2022-07-28T00:46:55.085Z,46.78
2022-07-28T00:49:24.608Z,40.78
2022-07-28T00:51:54.369Z,42.03
2022-07-28T00:54:23.672Z,44.83
2022-07-28T00:56:53.530Z,43.60
2022-07-28T00:59:22.715Z,39.22
2022-07-28T01:01:53.212Z,41.15
2022-07-28T01:04:26.253Z,44.30
2022-07-28T01:09:54.350Z,34.08
2022-07-28T01:12:47.173Z,39.13
2022-07-28T01:15:26.773Z,35.70
2022-07-28T01:18:06.394Z,36.80
2022-07-28T01:20:43.212Z,37.75
2022-07-28T01:24:06.370Z,39.60
2022-07-28T01:26:53.048Z,39.03
2022-07-28T01:30:22.492Z,44.53
2022-07-28T01:33:02.768Z,41.22
2022-07-28T01:35:38.192Z,46.17
2022-07-28T01:38:11.674Z,48.28
2022-07-28T01:40:46.148Z,47.50
2022-07-28T01:43:24.864Z,47.38
2022-07-28T01:45:57.699Z,48.80
2022-07-28T01:48:28.925Z,48.00
2022-07-28T01:50:59.051Z,49.15
2022-07-28T01:53:32.018Z,46.55
2022-07-28T01:56:08.923Z,42.80
2022-07-28T01:58:40.148Z,42.78
2022-07-28T02:01:13.371Z,38.90
2022-07-28T02:03:45.027Z,38.63
2022-07-28T02:06:16.763Z,39.97
2022-07-28T02:08:48.560Z,39.42
2022-07-28T02:11:35.561Z,38.20
2022-07-28T02:14:05.833Z,38.38
2022-07-28T02:16:36.904Z,34.83
2022-07-28T02:19:06.967Z,35.05
2022-07-28T02:21:38.077Z,35.20
2022-07-28T02:24:09.298Z,33.67
2022-07-28T02:26:43.338Z,36.17
2022-07-28T02:29:40.413Z,33.10
2022-07-28T02:32:27.339Z,33.58
2022-07-28T02:37:38.916Z,28.08
2022-07-28T02:40:14.921Z,30.10
2022-07-28T02:42:49.220Z,32.83
2022-07-28T02:45:25.555Z,31.45
2022-07-28T02:48:03.099Z,32.97
2022-07-28T02:50:32.706Z,30.42
2022-07-28T02:53:15.509Z,35.30
2022-07-28T02:55:51.012Z,32.63
2022-07-28T02:58:23.991Z,31.60
2022-07-28T03:00:55.928Z,31.80
2022-07-28T03:03:27.180Z,32.25
2022-07-28T03:05:57.002Z,30.85
2022-07-28T03:08:26.380Z,34.45
2022-07-28T03:11:10.087Z,29.40
2022-07-28T03:13:39.959Z,28.90
2022-07-28T03:16:09.598Z,29.42
2022-07-28T03:18:40.271Z,33.03
2022-07-28T03:21:11.289Z,32.75
2022-07-28T03:23:45.229Z,32.53
2022-07-28T03:26:20.634Z,34.50
2022-07-28T03:28:52.660Z,31.10
2022-07-28T03:31:23.090Z,30.40
2022-07-28T03:33:54.007Z,31.02
2022-07-28T03:36:30.471Z,29.17
2022-07-28T03:39:04.131Z,31.48
2022-07-28T03:41:35.008Z,29.83
2022-07-28T03:44:04.891Z,29.27
2022-07-28T03:46:34.574Z,30.92
2022-07-28T03:49:09.699Z,28.65
2022-07-28T03:51:39.827Z,26.00
2022-07-28T03:54:09.212Z,26.70
2022-07-28T03:56:38.566Z,26.63
2022-07-28T03:59:07.814Z,27.35
2022-07-28T04:01:37.230Z,26.23
2022-07-28T04:04:08.387Z,27.67
2022-07-28T04:06:37.789Z,28.00
2022-07-28T04:09:07.098Z,25.67
2022-07-28T04:11:36.452Z,27.05
2022-07-28T04:14:05.898Z,26.90
2022-07-28T04:16:35.334Z,30.02
2022-07-28T04:19:04.826Z,31.08
2022-07-28T04:21:35.444Z,28.55
2022-07-28T04:24:04.737Z,30.25
2022-07-28T04:26:33.934Z,29.25
2022-07-28T04:29:03.562Z,28.55
2022-07-28T04:31:33.109Z,29.08
2022-07-28T04:34:02.536Z,26.83
2022-07-28T04:36:32.517Z,28.05
2022-07-28T04:39:03.481Z,25.38
2022-07-28T04:41:32.786Z,28.35
2022-07-28T04:44:02.018Z,27.15
2022-07-28T04:46:31.349Z,27.75
2022-07-28T04:49:00.694Z,26.48
2022-07-28T04:51:29.985Z,27.90
2022-07-28T04:53:59.254Z,26.92
2022-07-28T04:56:29.909Z,27.23
2022-07-28T04:58:59.574Z,25.58
2022-07-28T05:01:29.845Z,28.33
2022-07-28T05:03:59.186Z,27.45
2022-07-28T05:06:28.568Z,24.98
2022-07-28T05:08:58.344Z,23.83
2022-07-28T05:11:29.165Z,27.85
2022-07-28T05:13:58.526Z,27.00
2022-07-28T05:16:27.803Z,26.85
2022-07-28T05:18:57.364Z,28.00
2022-07-28T05:21:26.726Z,27.50
2022-07-28T05:23:56.244Z,28.48
2022-07-28T05:26:27.012Z,29.60
2022-07-28T05:29:00.060Z,31.17
2022-07-28T05:31:29.593Z,30.30
2022-07-28T05:33:58.947Z,30.73
2022-07-28T05:36:31.049Z,30.70
2022-07-28T05:39:00.389Z,30.70
2022-07-28T05:41:29.986Z,32.28
2022-07-28T05:44:01.823Z,30.75
2022-07-28T05:46:31.109Z,30.70
2022-07-28T05:49:00.825Z,29.52
2022-07-28T05:51:30.087Z,33.42
2022-07-28T05:53:59.286Z,31.60
2022-07-28T05:56:28.958Z,33.53
2022-07-28T05:59:00.187Z,30.65
2022-07-28T06:01:29.484Z,31.40
2022-07-28T06:04:25.911Z,28.48
2022-07-28T06:06:48.722Z,29.77
2022-07-28T06:09:17.977Z,30.35
2022-07-28T06:11:47.248Z,31.98
2022-07-28T06:14:18.316Z,34.35
2022-07-28T06:16:51.320Z,31.92
2022-07-28T06:19:20.903Z,34.38
2022-07-28T06:21:52.630Z,38.53
2022-07-28T06:24:21.871Z,35.30
2022-07-28T06:26:52.843Z,37.42
2022-07-28T06:29:24.625Z,37.45
2022-07-28T06:31:53.888Z,35.53
2022-07-28T06:34:23.205Z,36.17
2022-07-28T06:36:53.081Z,38.92
2022-07-28T06:39:22.270Z,36.42
2022-07-28T06:41:51.753Z,37.92
2022-07-28T06:44:23.747Z,36.00
2022-07-28T06:46:54.193Z,39.92
2022-07-28T06:49:23.675Z,37.67
2022-07-28T06:51:52.995Z,44.42
2022-07-28T06:54:22.250Z,40.30
2022-07-28T06:56:52.331Z,39.90
2022-07-28T06:59:23.511Z,38.40
2022-07-28T07:01:52.776Z,37.08
2022-07-28T07:04:22.089Z,35.33
2022-07-28T07:06:51.395Z,34.00
2022-07-28T07:09:20.676Z,37.72
2022-07-28T07:11:50.154Z,39.03
2022-07-28T07:14:19.619Z,39.25
2022-07-28T07:16:50.879Z,40.45
2022-07-28T07:19:20.808Z,37.05
2022-07-28T07:21:50.630Z,40.60
2022-07-28T07:24:20.325Z,38.53
2022-07-28T07:26:51.712Z,39.60
2022-07-28T07:29:23.004Z,35.92
2022-07-28T07:31:53.847Z,35.45
2022-07-28T07:34:23.117Z,39.55
2022-07-28T07:36:52.693Z,38.33
2022-07-28T07:39:21.945Z,37.85
2022-07-28T07:41:51.509Z,35.47
2022-07-28T07:44:20.771Z,38.35
2022-07-28T07:46:50.271Z,38.17
2022-07-28T07:49:20.983Z,37.85
2022-07-28T07:51:50.405Z,34.60
2022-07-28T07:54:20.603Z,36.08
2022-07-28T07:56:49.774Z,36.15
2022-07-28T07:59:18.912Z,37.28
2022-07-28T08:01:54.363Z,35.75
2022-07-28T08:04:26.284Z,35.97
2022-07-28T08:06:58.274Z,39.45
2022-07-28T08:09:27.933Z,38.13
2022-07-28T08:11:57.242Z,35.30
2022-07-28T08:14:26.592Z,36.30
2022-07-28T08:16:56.862Z,41.00
2022-07-28T08:19:28.014Z,37.95
2022-07-28T08:21:57.382Z,39.75
2022-07-28T08:24:27.686Z,43.50
2022-07-28T08:27:02.626Z,42.28
2022-07-28T08:29:32.097Z,43.13
2022-07-28T08:32:03.898Z,44.08
2022-07-28T08:34:35.586Z,43.03
2022-07-28T08:37:07.322Z,41.83
2022-07-28T08:39:37.572Z,38.83
2022-07-28T08:42:10.383Z,39.45
2022-07-28T08:47:18.898Z,36.30
2022-07-28T08:49:51.330Z,42.83
2022-07-28T08:54:52.311Z,38.97
2022-07-28T08:57:27.662Z,46.92
2022-07-28T08:59:57.235Z,40.60
2022-07-28T09:02:29.243Z,43.13
2022-07-28T09:05:01.022Z,41.10
2022-07-28T09:07:30.454Z,47.43
2022-07-28T09:10:02.726Z,46.33
2022-07-28T09:15:03.251Z,40.05
2022-07-28T09:17:33.815Z,46.30
2022-07-28T09:20:10.417Z,45.75
2022-07-28T09:23:00.215Z,47.78
2022-07-28T09:25:30.879Z,46.17
2022-07-28T09:28:09.818Z,41.88
2022-07-28T09:30:53.640Z,42.90
2022-07-28T09:33:41.956Z,46.33
2022-07-28T09:36:17.482Z,44.05
2022-07-28T09:38:46.986Z,48.50
2022-07-28T09:41:19.163Z,41.88
2022-07-28T09:46:29.240Z,35.15
2022-07-28T09:49:02.496Z,40.17
2022-07-28T09:51:34.381Z,41.97
2022-07-28T09:54:13.763Z,37.97
2022-07-28T09:56:46.347Z,44.15
2022-07-28T09:59:18.243Z,52.30
2022-07-28T10:01:56.707Z,36.78
2022-07-28T10:04:44.486Z,42.17
2022-07-28T10:07:17.409Z,40.95
2022-07-28T10:09:58.805Z,70.63
2022-07-28T10:12:30.727Z,68.18
2022-07-28T10:15:32.581Z,82.82
2022-07-28T10:18:02.070Z,67.35
2022-07-28T10:20:32.885Z,92.72
2022-07-28T10:23:06.507Z,102.55
2022-07-28T10:25:36.862Z,78.88
2022-07-28T10:28:07.082Z,94.10
2022-07-28T10:30:41.481Z,90.20
2022-07-28T10:33:17.351Z,91.20
2022-07-28T10:35:55.234Z,81.60
2022-07-28T10:38:31.548Z,81.45
2022-07-28T10:41:03.836Z,84.78
2022-07-28T10:43:33.613Z,73.03
2022-07-28T10:46:07.346Z,78.70
2022-07-28T10:48:39.192Z,78.82
2022-07-28T10:51:09.368Z,76.78
2022-07-28T10:53:48.228Z,80.55
2022-07-28T10:56:25.384Z,66.40
2022-07-28T10:59:07.591Z,97.13
2022-07-28T11:01:53.863Z,104.95
2022-07-28T11:04:55.500Z,84.50
2022-07-28T11:07:24.927Z,83.25
2022-07-28T11:10:15.460Z,89.70
2022-07-28T11:12:49.581Z,96.97
2022-07-28T11:15:35.153Z,101.55
2022-07-28T11:18:10.906Z,110.07
2022-07-28T11:21:11.566Z,98.47
2022-07-28T11:23:56.236Z,100.13
2022-07-28T11:26:38.529Z,79.18
2022-07-28T11:29:23.936Z,108.47
2022-07-28T11:32:03.494Z,85.07
2022-07-28T11:35:15.547Z,86.03
2022-07-28T11:38:13.320Z,68.85
2022-07-28T11:40:46.013Z,54.63
2022-07-28T11:43:43.791Z,97.53
2022-07-28T11:46:25.050Z,72.22
2022-07-28T11:49:25.237Z,51.80
2022-07-28T11:52:24.669Z,45.63
2022-07-28T11:54:58.545Z,69.95
2022-07-28T11:57:28.862Z,66.85
2022-07-28T12:00:02.848Z,65.18
2022-07-28T12:02:36.405Z,53.05
2022-07-28T12:05:13.097Z,73.35
2022-07-28T12:07:51.845Z,67.00
2022-07-28T12:13:28.867Z,60.92
2022-07-28T12:15:59.732Z,46.05
2022-07-28T12:18:29.765Z,62.15
2022-07-28T12:21:04.946Z,63.17
2022-07-28T12:23:38.942Z,88.60
2022-07-28T12:26:31.217Z,53.00
2022-07-28T12:29:01.394Z,63.35
2022-07-28T12:31:33.428Z,66.22
2022-07-28T12:36:32.239Z,51.03
2022-07-28T12:39:01.885Z,61.03
2022-07-28T12:41:35.309Z,73.90
2022-07-28T12:44:06.903Z,71.60
2022-07-28T12:46:38.032Z,65.30
2022-07-28T12:49:22.741Z,75.38
2022-07-28T12:51:52.241Z,45.63
2022-07-28T12:54:37.087Z,50.92
2022-07-28T12:57:06.645Z,46.85
2022-07-28T12:59:38.440Z,51.13
2022-07-28T13:02:09.590Z,65.43
2022-07-28T13:04:42.685Z,65.88
2022-07-28T13:07:14.823Z,55.15
2022-07-28T13:09:53.202Z,63.33
2022-07-28T13:12:31.652Z,70.97
2022-07-28T13:15:02.908Z,83.88
2022-07-28T13:17:52.575Z,80.53
2022-07-28T13:20:24.586Z,88.53
2022-07-28T13:22:54.972Z,87.70
2022-07-28T13:25:24.523Z,89.75
2022-07-28T13:27:55.553Z,86.22
2022-07-28T13:30:25.484Z,99.50
2022-07-28T13:32:56.831Z,92.43
2022-07-28T13:35:26.329Z,82.50
2022-07-28T13:37:55.489Z,81.07
2022-07-28T13:40:24.895Z,89.72
2022-07-28T13:42:56.843Z,84.03
2022-07-28T13:48:01.387Z,85.35
2022-07-28T13:50:30.828Z,79.45
2022-07-28T13:53:00.033Z,85.82
2022-07-28T13:55:30.939Z,82.30
2022-07-28T13:58:00.609Z,91.65
2022-07-28T14:00:31.165Z,90.32
2022-07-28T14:03:02.378Z,87.68
2022-07-28T14:05:32.542Z,72.15
2022-07-28T14:08:03.085Z,81.45
2022-07-28T14:10:32.492Z,76.80
2022-07-28T14:13:01.990Z,78.75
2022-07-28T14:15:31.335Z,92.57
2022-07-28T14:18:01.957Z,90.00
2022-07-28T14:20:31.413Z,107.70
2022-07-28T14:23:01.782Z,87.13
2022-07-28T14:25:48.221Z,97.40
2022-07-28T14:28:18.674Z,85.88
2022-07-28T14:30:47.849Z,85.50
2022-07-28T14:33:19.486Z,86.38
2022-07-28T14:35:48.961Z,70.00
2022-07-28T14:41:07.378Z,75.78
2022-07-28T14:43:36.643Z,87.30
2022-07-28T14:46:16.353Z,65.15
2022-07-28T14:48:52.282Z,77.97
2022-07-28T14:51:21.577Z,80.55
2022-07-28T14:53:52.108Z,83.05
2022-07-28T14:56:21.564Z,75.88
2022-07-28T14:58:50.840Z,63.58
2022-07-28T15:01:20.148Z,71.07
2022-07-28T15:03:49.423Z,88.07
2022-07-28T15:06:19.959Z,70.97
2022-07-28T15:08:49.271Z,71.03
2022-07-28T15:11:18.503Z,80.35
2022-07-28T15:13:47.757Z,79.28
2022-07-28T15:16:17.532Z,72.13
2022-07-28T15:18:46.750Z,80.45
2022-07-28T15:21:17.336Z,74.35
2022-07-28T15:23:48.580Z,74.68
2022-07-28T15:26:17.846Z,68.75
2022-07-28T15:28:48.645Z,52.13
2022-07-28T15:31:19.860Z,61.95
2022-07-28T15:33:54.876Z,65.28
2022-07-28T15:36:27.778Z,67.88
2022-07-28T15:38:58.365Z,51.90
2022-07-28T15:41:28.565Z,64.67
2022-07-28T15:43:57.854Z,64.35
2022-07-28T15:46:27.408Z,79.57
2022-07-28T15:48:57.059Z,64.22
2022-07-28T15:51:27.094Z,75.68
2022-07-28T15:54:00.996Z,71.05
2022-07-28T15:56:31.763Z,65.50
2022-07-28T15:59:02.088Z,70.75
2022-07-28T16:01:31.519Z,91.25
2022-07-28T16:04:02.212Z,71.90
2022-07-28T16:06:45.989Z,72.30
2022-07-28T16:09:16.751Z,78.47
2022-07-28T16:11:46.094Z,68.10
2022-07-28T16:14:15.757Z,81.97
2022-07-28T16:16:45.543Z,77.40
2022-07-28T16:19:46.158Z,86.88
2022-07-28T16:22:05.209Z,76.80
2022-07-28T16:24:35.841Z,72.43
2022-07-28T16:27:05.322Z,80.15
2022-07-28T16:29:35.670Z,79.03
2022-07-28T16:32:07.913Z,72.97
2022-07-28T16:34:37.124Z,73.88
2022-07-28T16:37:06.551Z,70.70
2022-07-28T16:39:37.228Z,66.93
2022-07-28T16:42:07.478Z,69.57
2022-07-28T16:44:37.752Z,65.82
2022-07-28T16:47:07.250Z,71.82
2022-07-28T16:49:38.051Z,66.85
2022-07-28T16:52:10.264Z,67.00
2022-07-28T16:54:40.943Z,64.72
2022-07-28T16:57:10.294Z,68.00
2022-07-28T16:59:47.937Z,70.93
2022-07-28T17:02:19.247Z,65.72
2022-07-28T17:04:48.966Z,73.13
2022-07-28T17:07:18.595Z,71.03
2022-07-28T17:09:49.210Z,70.57
2022-07-28T17:12:18.492Z,59.15
2022-07-28T17:14:48.052Z,63.90
2022-07-28T17:17:17.319Z,51.80
2022-07-28T17:19:48.112Z,55.80
2022-07-28T17:22:18.361Z,52.20
2022-07-28T17:24:49.460Z,51.75
2022-07-28T17:30:10.128Z,47.00
2022-07-28T17:32:39.463Z,52.33
2022-07-28T17:35:34.611Z,52.53
2022-07-28T17:38:01.456Z,52.45
2022-07-28T17:40:32.690Z,54.47
2022-07-28T17:43:01.987Z,52.00
2022-07-28T17:45:31.496Z,50.13
2022-07-28T17:48:00.904Z,58.88
2022-07-28T17:50:30.992Z,57.92
2022-07-28T17:53:01.821Z,55.60
2022-07-28T17:55:39.199Z,53.47
2022-07-28T17:58:29.300Z,48.20
2022-07-28T18:01:10.946Z,56.28
2022-07-28T18:03:57.608Z,60.53
2022-07-28T18:06:32.868Z,54.20
2022-07-28T18:11:57.332Z,43.42
2022-07-28T18:14:29.987Z,46.47
2022-07-28T18:17:00.293Z,56.83
2022-07-28T18:19:30.878Z,56.13
2022-07-28T18:22:00.252Z,63.30
2022-07-28T18:24:29.881Z,62.03
2022-07-28T18:27:00.598Z,61.88
2022-07-28T18:29:38.203Z,64.00
2022-07-28T18:32:09.918Z,58.30
2022-07-28T18:34:41.348Z,69.20
2022-07-28T18:37:10.735Z,55.55
2022-07-28T18:39:40.280Z,62.95
2022-07-28T18:42:11.929Z,60.47
2022-07-28T18:44:41.475Z,59.73
2022-07-28T18:47:11.081Z,59.05
2022-07-28T18:49:40.587Z,57.58
2022-07-28T18:52:10.485Z,57.50
2022-07-28T18:54:39.788Z,60.65
2022-07-28T18:57:10.604Z,65.65
2022-07-28T18:59:44.582Z,65.28
2022-07-28T19:02:16.209Z,62.95
2022-07-28T19:04:47.215Z,61.75
2022-07-28T19:07:17.225Z,76.60
2022-07-28T19:09:46.514Z,63.88
2022-07-28T19:12:20.148Z,58.60
2022-07-28T19:14:49.422Z,59.25
2022-07-28T19:17:20.745Z,59.05
2022-07-28T19:19:56.160Z,64.15
2022-07-28T19:22:25.688Z,58.03
2022-07-28T19:24:55.325Z,63.40
2022-07-28T19:27:26.067Z,63.92
2022-07-28T19:30:00.110Z,59.03
2022-07-28T19:32:29.365Z,61.75
2022-07-28T19:34:59.402Z,59.17
2022-07-28T19:37:28.943Z,59.92
2022-07-28T19:39:58.139Z,60.25
2022-07-28T19:42:31.543Z,54.28
2022-07-28T19:45:01.744Z,57.67
2022-07-28T19:47:31.271Z,55.90
2022-07-28T19:50:00.752Z,56.40
2022-07-28T19:52:30.314Z,55.33
2022-07-28T19:55:00.471Z,48.80
2022-07-28T19:57:31.102Z,47.55
2022-07-28T20:00:02.203Z,48.50
2022-07-28T20:02:41.284Z,43.55
2022-07-28T20:05:11.907Z,44.47
2022-07-28T20:07:41.357Z,46.38
2022-07-28T20:10:11.197Z,48.75
2022-07-28T20:12:42.508Z,45.95
2022-07-28T20:15:13.160Z,44.80
2022-07-28T20:17:42.828Z,46.45
2022-07-28T20:20:14.727Z,49.63
2022-07-28T20:22:44.568Z,45.92
2022-07-28T20:25:14.777Z,50.83
2022-07-28T20:27:45.963Z,51.45
2022-07-28T20:30:15.537Z,54.03
2022-07-28T20:32:45.544Z,55.95
2022-07-28T20:35:15.338Z,55.10
2022-07-28T20:37:45.205Z,56.40
2022-07-28T20:40:14.597Z,55.33
2022-07-28T20:42:49.808Z,56.05
2022-07-28T20:45:22.950Z,56.42
2022-07-28T20:47:52.583Z,53.78
2022-07-28T20:50:22.141Z,57.40
2022-07-28T20:52:51.925Z,56.50
2022-07-28T20:55:21.932Z,54.53
2022-07-28T20:57:55.953Z,53.22
2022-07-28T21:00:26.653Z,57.80
2022-07-28T21:02:56.099Z,59.97
2022-07-28T21:05:35.059Z,56.97
2022-07-28T21:08:09.546Z,60.03
2022-07-28T21:10:46.671Z,59.22
2022-07-28T21:13:18.744Z,59.33
2022-07-28T21:15:48.203Z,63.42
2022-07-28T21:18:18.556Z,61.55
2022-07-28T21:20:48.012Z,61.03
2022-07-28T21:23:19.171Z,61.92
2022-07-28T21:25:51.412Z,61.17
2022-07-28T21:28:39.502Z,56.00
2022-07-28T21:31:09.978Z,55.22
2022-07-28T21:33:39.445Z,58.28
2022-07-28T21:36:09.665Z,61.60
2022-07-28T21:38:39.625Z,57.38
2022-07-28T21:41:09.016Z,58.72
2022-07-28T21:43:40.123Z,55.40
2022-07-28T21:46:11.797Z,54.00
2022-07-28T21:48:41.356Z,54.65
2022-07-28T21:51:18.248Z,53.70
2022-07-28T21:53:52.705Z,54.20
2022-07-28T21:56:22.242Z,57.72
2022-07-28T21:58:53.275Z,56.70
2022-07-28T22:01:24.015Z,58.33
2022-07-28T22:03:53.358Z,61.40
2022-07-28T22:06:23.217Z,57.38
2022-07-28T22:08:54.683Z,58.47
2022-07-28T22:11:24.270Z,60.95
2022-07-28T22:13:55.062Z,59.20
2022-07-28T22:16:24.443Z,60.22
2022-07-28T22:18:53.832Z,64.35
2022-07-28T22:21:23.137Z,62.92
2022-07-28T22:23:52.678Z,61.33
2022-07-28T22:26:21.970Z,56.58
2022-07-28T22:28:51.434Z,59.85
2022-07-28T22:31:22.444Z,58.47
2022-07-28T22:33:52.136Z,58.72
2022-07-28T22:36:21.549Z,57.25
2022-07-28T22:38:50.966Z,57.65
2022-07-28T22:41:20.306Z,58.75
2022-07-28T22:43:49.722Z,55.75
2022-07-28T22:46:19.272Z,55.47
2022-07-28T22:48:50.539Z,58.30
2022-07-28T22:51:19.963Z,56.92
2022-07-28T22:53:49.542Z,55.85
2022-07-28T22:56:19.763Z,55.58
2022-07-28T22:58:49.229Z,59.40
2022-07-28T23:01:18.873Z,57.28
2022-07-28T23:03:49.855Z,58.20
2022-07-28T23:06:20.334Z,54.47
2022-07-28T23:08:49.988Z,56.90
2022-07-28T23:11:19.352Z,55.10
2022-07-28T23:13:48.773Z,56.15
2022-07-28T23:16:18.325Z,53.03
2022-07-28T23:18:47.758Z,56.70
2022-07-28T23:21:18.434Z,50.40
2022-07-28T23:23:47.954Z,52.60
2022-07-28T23:26:17.413Z,56.72
2022-07-28T23:28:46.734Z,53.38
2022-07-28T23:31:16.137Z,54.28
2022-07-28T23:33:55.021Z,55.38
2022-07-28T23:36:28.317Z,52.28
2022-07-28T23:38:59.604Z,70.03
2022-07-28T23:41:29.293Z,64.95
2022-07-28T23:43:58.729Z,52.60
2022-07-28T23:46:28.119Z,51.50
2022-07-28T23:48:57.716Z,52.40
2022-07-28T23:51:47.179Z,49.70
2022-07-28T23:54:18.170Z,50.50
2022-07-28T23:56:48.101Z,47.85
2022-07-28T23:59:17.789Z,53.58
